createdAt,value
2023-02-11T00:01:11.713Z,-4.60
2023-02-11T00:03:42.843Z,-4.63
2023-02-11T00:06:14.732Z,-4.64
2023-02-11T00:08:46.068Z,-4.67
2023-02-11T00:11:20.236Z,-4.70
2023-02-11T00:13:51.734Z,-4.71
2023-02-11T00:16:23.456Z,-4.69
2023-02-11T00:18:54.426Z,-4.69
2023-02-11T00:21:26.862Z,-4.71
2023-02-11T00:23:59.956Z,-4.72
2023-02-11T00:26:33.931Z,-4.72
2023-02-11T00:29:06.167Z,-4.71
2023-02-11T00:31:37.252Z,-4.72
2023-02-11T00:34:08.486Z,-4.77
2023-02-11T00:36:39.376Z,-4.81
2023-02-11T00:39:11.130Z,-4.83
2023-02-11T00:41:42.060Z,-4.82
2023-02-11T00:44:13.048Z,-4.82
2023-02-11T00:46:44.302Z,-4.81
2023-02-11T00:49:15.645Z,-4.81
2023-02-11T00:51:46.963Z,-4.80
2023-02-11T00:54:17.918Z,-4.78
2023-02-11T00:56:49.047Z,-4.77
2023-02-11T00:59:20.051Z,-4.77
2023-02-11T01:01:51.243Z,-4.79
2023-02-11T01:04:22.452Z,-4.81
2023-02-11T01:06:53.717Z,-4.83
2023-02-11T01:09:24.673Z,-4.85
2023-02-11T01:11:55.645Z,-4.93
2023-02-11T01:14:26.730Z,-5.06
2023-02-11T01:16:57.724Z,-5.14
2023-02-11T01:19:28.672Z,-5.18
2023-02-11T01:22:00.177Z,-5.18
2023-02-11T01:24:31.519Z,-5.16
2023-02-11T01:27:02.644Z,-5.14
2023-02-11T01:29:33.968Z,-5.14
2023-02-11T01:32:05.387Z,-5.14
2023-02-11T01:34:36.694Z,-5.14
2023-02-11T01:37:07.930Z,-5.13
2023-02-11T01:39:38.898Z,-5.11
2023-02-11T01:42:12.816Z,-5.08
2023-02-11T01:44:44.132Z,-5.06
2023-02-11T01:47:15.223Z,-5.03
2023-02-11T01:49:49.465Z,-5.00
2023-02-11T01:52:24.759Z,-4.99
2023-02-11T01:55:17.969Z,-4.99
2023-02-11T01:57:53.996Z,-4.98
2023-02-11T02:00:27.527Z,-4.98
2023-02-11T02:03:04.259Z,-4.99
2023-02-11T02:05:40.703Z,-5.01
2023-02-11T02:08:18.110Z,-5.00
2023-02-11T02:10:56.593Z,-5.02
2023-02-11T02:13:28.745Z,-5.00
2023-02-11T02:16:02.580Z,-4.98
2023-02-11T02:18:48.791Z,-4.96
2023-02-11T02:21:45.345Z,-4.94
2023-02-11T02:24:39.360Z,-4.92
2023-02-11T02:27:31.002Z,-4.90
2023-02-11T02:30:33.386Z,-4.89
2023-02-11T02:33:28.967Z,-4.86
2023-02-11T02:36:10.227Z,-4.84
2023-02-11T02:38:46.245Z,-4.81
2023-02-11T02:41:20.501Z,-4.78
2023-02-11T02:43:53.064Z,-4.76
2023-02-11T02:46:26.718Z,-4.74
2023-02-11T02:48:59.211Z,-4.72
2023-02-11T02:51:54.035Z,-4.71
2023-02-11T02:54:54.324Z,-4.68
2023-02-11T02:57:34.255Z,-4.65
2023-02-11T03:00:26.418Z,-4.61
2023-02-11T03:03:16.909Z,-4.58
2023-02-11T03:05:56.499Z,-4.56
2023-02-11T03:08:33.673Z,-4.56
2023-02-11T03:11:06.923Z,-4.57
2023-02-11T03:13:40.780Z,-4.57
2023-02-11T03:16:16.412Z,-4.56
2023-02-11T03:18:51.665Z,-4.55
2023-02-11T03:21:23.748Z,-4.53
2023-02-11T03:23:57.791Z,-4.50
2023-02-11T03:26:34.099Z,-4.47
2023-02-11T03:29:11.126Z,-4.44
2023-02-11T03:31:48.585Z,-4.39
2023-02-11T03:34:26.513Z,-4.33
2023-02-11T03:37:01.654Z,-4.30
2023-02-11T03:39:38.916Z,-4.28
2023-02-11T03:42:12.426Z,-4.25
2023-02-11T03:44:49.942Z,-4.22
2023-02-11T03:47:25.948Z,-4.20
2023-02-11T03:50:00.698Z,-4.22
2023-02-11T03:52:33.526Z,-4.24
2023-02-11T03:55:09.150Z,-4.26
2023-02-11T03:57:40.396Z,-4.25
2023-02-11T04:00:13.657Z,-4.23
2023-02-11T04:02:45.146Z,-4.18
2023-02-11T04:05:17.896Z,-4.15
2023-02-11T04:07:48.767Z,-4.13
2023-02-11T04:10:20.450Z,-4.14
2023-02-11T04:12:51.365Z,-4.17
2023-02-11T04:15:22.888Z,-4.19
2023-02-11T04:17:54.406Z,-4.16
2023-02-11T04:20:25.525Z,-4.14
2023-02-11T04:22:56.843Z,-4.11
2023-02-11T04:25:27.996Z,-4.07
2023-02-11T04:27:59.001Z,-4.05
2023-02-11T04:30:30.116Z,-4.04
2023-02-11T04:33:02.011Z,-4.04
2023-02-11T04:35:33.398Z,-4.01
2023-02-11T04:38:04.552Z,-3.98
2023-02-11T04:40:36.050Z,-3.92
2023-02-11T04:43:07.236Z,-3.89
2023-02-11T04:45:38.582Z,-3.87
2023-02-11T04:48:09.942Z,-3.87
2023-02-11T04:50:41.095Z,-3.87
2023-02-11T04:53:12.267Z,-3.89
2023-02-11T04:55:43.265Z,-3.90
2023-02-11T04:58:14.373Z,-3.93
2023-02-11T05:00:45.379Z,-3.93
2023-02-11T05:03:17.268Z,-3.93
2023-02-11T05:05:48.765Z,-3.93
2023-02-11T05:08:19.807Z,-3.93
2023-02-11T05:10:51.003Z,-3.94
2023-02-11T05:13:22.017Z,-3.95
2023-02-11T05:15:53.267Z,-3.94
2023-02-11T05:18:24.692Z,-3.94
2023-02-11T05:20:56.074Z,-3.92
2023-02-11T05:23:27.025Z,-3.89
2023-02-11T05:25:58.065Z,-3.85
2023-02-11T05:28:29.570Z,-3.81
2023-02-11T05:30:59.226Z,-3.78
2023-02-11T05:33:30.710Z,-3.76
2023-02-11T05:36:04.210Z,-3.73
2023-02-11T05:38:35.381Z,-3.71
2023-02-11T05:41:07.891Z,-3.69
2023-02-11T05:43:38.933Z,-3.66
2023-02-11T05:46:09.986Z,-3.65
2023-02-11T05:48:40.995Z,-3.64
2023-02-11T05:51:12.115Z,-3.64
2023-02-11T05:53:43.213Z,-3.65
2023-02-11T05:56:14.677Z,-3.65
2023-02-11T05:58:45.571Z,-3.64
2023-02-11T06:01:16.694Z,-3.60
2023-02-11T06:03:50.257Z,-3.55
2023-02-11T06:06:21.860Z,-3.49
2023-02-11T06:08:52.830Z,-3.43
2023-02-11T06:11:23.874Z,-3.39
2023-02-11T06:13:54.946Z,-3.34
2023-02-11T06:16:26.263Z,-3.27
2023-02-11T06:18:57.652Z,-3.20
2023-02-11T06:21:42.837Z,-3.15
2023-02-11T06:24:17.421Z,-3.11
2023-02-11T06:26:50.546Z,-3.06
2023-02-11T06:29:21.438Z,-3.01
2023-02-11T06:31:52.783Z,-2.97
2023-02-11T06:34:24.068Z,-2.93
2023-02-11T06:36:54.984Z,-2.90
2023-02-11T06:39:26.263Z,-2.87
2023-02-11T06:41:57.306Z,-2.83
2023-02-11T06:44:28.346Z,-2.81
2023-02-11T06:46:59.389Z,-2.78
2023-02-11T06:49:30.361Z,-2.76
2023-02-11T06:52:01.386Z,-2.72
2023-02-11T06:54:32.478Z,-2.69
2023-02-11T06:57:03.598Z,-2.65
2023-02-11T06:59:34.584Z,-2.64
2023-02-11T07:02:05.752Z,-2.61
2023-02-11T07:04:36.830Z,-2.57
2023-02-11T07:07:08.090Z,-2.53
2023-02-11T07:09:39.114Z,-2.49
2023-02-11T07:12:11.917Z,-2.44
2023-02-11T07:14:43.338Z,-2.39
2023-02-11T07:17:14.366Z,-2.36
2023-02-11T07:19:45.420Z,-2.33
2023-02-11T07:22:16.572Z,-2.28
2023-02-11T07:24:47.640Z,-2.21
2023-02-11T07:27:19.136Z,-2.16
2023-02-11T07:29:48.803Z,-2.13
2023-02-11T07:32:19.804Z,-2.09
2023-02-11T07:34:50.973Z,-2.03
2023-02-11T07:37:22.270Z,-1.98
2023-02-11T07:39:53.364Z,-1.94
2023-02-11T07:42:24.642Z,-1.90
2023-02-11T07:44:56.010Z,-1.89
2023-02-11T07:47:27.122Z,-1.86
2023-02-11T07:49:58.117Z,-1.84
2023-02-11T07:52:32.133Z,-1.81
2023-02-11T07:55:04.892Z,-1.78
2023-02-11T07:57:35.973Z,-1.74
2023-02-11T08:00:08.482Z,-1.70
2023-02-11T08:02:39.571Z,-1.67
2023-02-11T08:05:11.164Z,-1.61
2023-02-11T08:07:42.332Z,-1.54
2023-02-11T08:10:13.517Z,-1.48
2023-02-11T08:12:44.774Z,-1.41
2023-02-11T08:15:16.186Z,-1.35
2023-02-11T08:17:47.287Z,-1.28
2023-02-11T08:20:18.576Z,-1.22
2023-02-11T08:22:49.842Z,-1.19
2023-02-11T08:25:20.892Z,-1.14
2023-02-11T08:27:52.044Z,-1.14
2023-02-11T08:30:25.056Z,-1.11
2023-02-11T08:32:57.769Z,-1.12
2023-02-11T08:35:28.950Z,-1.11
2023-02-11T08:38:00.101Z,-1.10
2023-02-11T08:40:31.217Z,-1.05
2023-02-11T08:43:02.655Z,-1.01
2023-02-11T08:45:32.459Z,-0.96
2023-02-11T08:48:03.641Z,-0.92
2023-02-11T08:50:34.986Z,-0.89
2023-02-11T08:53:04.701Z,-0.85
2023-02-11T08:55:35.931Z,-0.81
2023-02-11T08:58:06.984Z,-0.74
2023-02-11T09:00:38.091Z,-0.65
2023-02-11T09:03:09.179Z,-0.56
2023-02-11T09:05:44.170Z,-0.50
2023-02-11T09:08:15.596Z,-0.47
2023-02-11T09:10:46.918Z,-0.42
2023-02-11T09:13:16.974Z,-0.36
2023-02-11T09:15:49.066Z,-0.32
2023-02-11T09:18:21.283Z,-0.25
2023-02-11T09:20:53.118Z,-0.15
2023-02-11T09:23:23.028Z,-0.07
2023-02-11T09:26:09.918Z,-0.03
2023-02-11T09:28:41.161Z,0.06
2023-02-11T09:31:11.840Z,0.14
2023-02-11T09:33:48.038Z,0.21
2023-02-11T09:36:21.711Z,0.29
2023-02-11T09:38:53.441Z,0.35
2023-02-11T09:41:39.963Z,0.42
2023-02-11T09:44:19.647Z,0.47
2023-02-11T09:46:55.865Z,0.50
2023-02-11T09:49:33.555Z,0.53
2023-02-11T09:52:12.142Z,0.58
2023-02-11T09:54:53.853Z,0.65
2023-02-11T09:57:29.305Z,0.73
2023-02-11T10:00:00.729Z,0.81
2023-02-11T10:02:45.144Z,0.89
2023-02-11T10:05:27.040Z,0.92
2023-02-11T10:08:09.744Z,0.96
2023-02-11T10:10:51.639Z,0.99
2023-02-11T10:13:49.021Z,1.04
2023-02-11T10:16:33.486Z,1.11
2023-02-11T10:19:41.110Z,1.15
2023-02-11T10:22:19.442Z,1.15
2023-02-11T10:24:55.492Z,1.17
2023-02-11T10:27:31.911Z,1.24
2023-02-11T10:30:07.446Z,1.26
2023-02-11T10:32:46.298Z,1.24
2023-02-11T10:35:19.506Z,1.27
2023-02-11T10:37:50.843Z,1.30
2023-02-11T10:40:23.879Z,1.34
2023-02-11T10:42:57.084Z,1.36
2023-02-11T10:45:33.342Z,1.36
2023-02-11T10:48:07.264Z,1.38
2023-02-11T10:50:38.900Z,1.40
2023-02-11T10:53:20.573Z,1.41
2023-02-11T10:55:57.427Z,1.46
2023-02-11T10:58:32.734Z,1.51
2023-02-11T11:01:10.216Z,1.52
2023-02-11T11:03:52.551Z,1.51
2023-02-11T11:06:34.651Z,1.51
2023-02-11T11:09:06.069Z,1.51
2023-02-11T11:11:54.685Z,1.51
2023-02-11T11:14:29.120Z,1.50
2023-02-11T11:17:00.209Z,1.50
2023-02-11T11:19:31.350Z,1.49
2023-02-11T11:22:00.862Z,1.50
2023-02-11T11:24:41.692Z,1.50
2023-02-11T11:27:22.207Z,1.52
2023-02-11T11:29:55.986Z,1.55
2023-02-11T11:32:30.152Z,1.58
2023-02-11T11:35:06.029Z,1.61
2023-02-11T11:37:38.398Z,1.64
2023-02-11T11:40:12.668Z,1.68
2023-02-11T11:43:07.766Z,1.71
2023-02-11T11:45:38.853Z,1.74
2023-02-11T11:48:14.534Z,1.76
2023-02-11T11:50:51.310Z,1.78
2023-02-11T11:53:29.208Z,1.83
2023-02-11T11:56:05.518Z,1.88
2023-02-11T11:58:36.973Z,1.91
2023-02-11T12:01:23.472Z,1.93
2023-02-11T12:04:17.977Z,1.94
2023-02-11T12:07:03.545Z,1.96
2023-02-11T12:09:42.110Z,1.99
2023-02-11T12:12:32.340Z,2.02
2023-02-11T12:15:08.382Z,2.05
2023-02-11T12:17:56.520Z,2.06
2023-02-11T12:20:38.129Z,2.09
2023-02-11T12:23:33.012Z,2.14
2023-02-11T12:26:14.538Z,2.17
2023-02-11T12:29:00.751Z,2.20
2023-02-11T12:31:44.140Z,2.23
2023-02-11T12:34:43.208Z,2.25
2023-02-11T12:37:26.985Z,2.26
2023-02-11T12:40:04.628Z,2.27
2023-02-11T12:43:04.566Z,2.29
2023-02-11T12:45:47.439Z,2.30
2023-02-11T12:48:37.685Z,2.33
2023-02-11T12:51:16.006Z,2.37
2023-02-11T12:54:05.293Z,2.40
2023-02-11T12:56:42.858Z,2.43
2023-02-11T12:59:22.766Z,2.46
2023-02-11T13:01:55.193Z,2.48
2023-02-11T13:04:31.739Z,2.49
2023-02-11T13:07:10.070Z,2.51
2023-02-11T13:09:45.611Z,2.52
2023-02-11T13:12:35.526Z,2.53
2023-02-11T13:15:14.147Z,2.55
2023-02-11T13:17:53.828Z,2.57
2023-02-11T13:20:33.901Z,2.61
2023-02-11T13:23:13.805Z,2.63
2023-02-11T13:25:51.409Z,2.62
2023-02-11T13:28:34.869Z,2.62
2023-02-11T13:31:07.971Z,2.64
2023-02-11T13:33:43.147Z,2.67
2023-02-11T13:36:34.161Z,2.73
2023-02-11T13:39:08.056Z,2.77
2023-02-11T13:41:42.053Z,2.84
2023-02-11T13:44:25.651Z,2.90
2023-02-11T13:47:05.758Z,2.90
2023-02-11T13:49:40.886Z,2.89
2023-02-11T13:52:25.907Z,2.86
2023-02-11T13:55:00.250Z,2.83
2023-02-11T13:57:37.573Z,2.80
2023-02-11T14:00:47.368Z,2.78
2023-02-11T14:03:56.834Z,2.78
2023-02-11T14:06:49.268Z,2.77
2023-02-11T14:09:41.335Z,2.78
2023-02-11T14:12:36.217Z,2.78
2023-02-11T14:15:27.540Z,2.81
2023-02-11T14:17:58.518Z,2.85
2023-02-11T14:20:39.310Z,2.89
2023-02-11T14:23:22.885Z,2.92
2023-02-11T14:26:06.288Z,2.92
2023-02-11T14:28:39.829Z,2.93
2023-02-11T14:31:14.254Z,2.91
2023-02-11T14:34:03.892Z,2.90
2023-02-11T14:36:56.057Z,2.84
2023-02-11T14:39:40.359Z,2.78
2023-02-11T14:42:19.954Z,2.73
2023-02-11T14:44:53.532Z,2.69
2023-02-11T14:47:29.934Z,2.67
2023-02-11T14:50:01.268Z,2.64
2023-02-11T14:52:32.609Z,2.62
2023-02-11T14:55:17.801Z,2.58
2023-02-11T14:57:50.934Z,2.55
2023-02-11T15:00:24.446Z,2.52
2023-02-11T15:02:57.140Z,2.49
2023-02-11T15:05:30.187Z,2.47
2023-02-11T15:08:03.284Z,2.46
2023-02-11T15:10:37.521Z,2.44
2023-02-11T15:13:09.156Z,2.43
2023-02-11T15:15:42.644Z,2.43
2023-02-11T15:18:22.886Z,2.41
2023-02-11T15:20:54.202Z,2.39
2023-02-11T15:23:28.481Z,2.37
2023-02-11T15:26:03.397Z,2.36
2023-02-11T15:28:36.014Z,2.34
2023-02-11T15:31:15.372Z,2.34
2023-02-11T15:33:46.781Z,2.33
2023-02-11T15:36:19.258Z,2.32
2023-02-11T15:39:20.568Z,2.29
2023-02-11T15:41:51.572Z,2.24
2023-02-11T15:44:38.722Z,2.23
2023-02-11T15:47:14.070Z,2.20
2023-02-11T15:49:48.954Z,2.18
2023-02-11T15:52:27.800Z,2.17
2023-02-11T15:55:02.395Z,2.17
2023-02-11T15:57:36.942Z,2.17
2023-02-11T16:00:17.495Z,2.15
2023-02-11T16:02:51.030Z,2.13
2023-02-11T16:05:36.473Z,2.12
2023-02-11T16:08:25.419Z,2.11
2023-02-11T16:11:03.345Z,2.10
2023-02-11T16:13:44.681Z,2.09
2023-02-11T16:16:23.053Z,2.08
2023-02-11T16:19:04.584Z,2.08
2023-02-11T16:21:45.785Z,2.09
2023-02-11T16:24:22.647Z,2.09
2023-02-11T16:26:57.163Z,2.09
2023-02-11T16:29:30.440Z,2.09
2023-02-11T16:32:11.341Z,2.10
2023-02-11T16:34:42.496Z,2.09
2023-02-11T16:37:13.701Z,2.09
2023-02-11T16:39:44.878Z,2.08
2023-02-11T16:42:16.124Z,2.09
2023-02-11T16:44:45.624Z,2.10
2023-02-11T16:47:21.643Z,2.09
2023-02-11T16:49:53.163Z,2.09
2023-02-11T16:52:25.414Z,2.10
2023-02-11T16:54:56.530Z,2.09
2023-02-11T16:57:30.342Z,2.09
2023-02-11T17:00:01.775Z,2.10
2023-02-11T17:02:35.829Z,2.12
2023-02-11T17:05:09.323Z,2.13
2023-02-11T17:07:40.456Z,2.14
2023-02-11T17:10:17.508Z,2.15
2023-02-11T17:12:49.132Z,2.16
2023-02-11T17:15:20.948Z,2.19
2023-02-11T17:17:52.195Z,2.21
2023-02-11T17:20:23.623Z,2.24
2023-02-11T17:22:53.054Z,2.26
2023-02-11T17:25:24.699Z,2.26
2023-02-11T17:27:55.610Z,2.27
2023-02-11T17:30:26.750Z,2.27
2023-02-11T17:33:00.274Z,2.28
2023-02-11T17:35:31.530Z,2.28
2023-02-11T17:38:01.594Z,2.30
2023-02-11T17:40:33.125Z,2.28
2023-02-11T17:43:04.152Z,2.28
2023-02-11T17:45:36.025Z,2.28
2023-02-11T17:48:07.461Z,2.28
2023-02-11T17:50:39.541Z,2.29
2023-02-11T17:53:10.884Z,2.29
2023-02-11T17:55:40.592Z,2.29
2023-02-11T17:58:11.548Z,2.27
2023-02-11T18:00:43.508Z,2.26
2023-02-11T18:03:14.739Z,2.26
2023-02-11T18:05:46.047Z,2.26
2023-02-11T18:08:17.035Z,2.27
2023-02-11T18:10:48.280Z,2.26
2023-02-11T18:13:19.375Z,2.27
2023-02-11T18:15:51.275Z,2.27
2023-02-11T18:18:22.558Z,2.27
2023-02-11T18:21:00.054Z,2.27
2023-02-11T18:23:29.468Z,2.28
2023-02-11T18:26:00.518Z,2.26
2023-02-11T18:28:31.751Z,2.27
2023-02-11T18:31:03.264Z,2.28
2023-02-11T18:33:35.068Z,2.30
2023-02-11T18:36:09.698Z,2.33
2023-02-11T18:38:40.996Z,2.36
2023-02-11T18:41:11.953Z,2.37
2023-02-11T18:43:43.142Z,2.37
2023-02-11T18:46:16.419Z,2.39
2023-02-11T18:48:47.738Z,2.38
2023-02-11T18:51:19.169Z,2.38
2023-02-11T18:53:50.345Z,2.37
2023-02-11T18:56:21.025Z,2.37
2023-02-11T18:58:52.446Z,2.36
2023-02-11T19:01:26.836Z,2.37
2023-02-11T19:04:02.810Z,2.38
2023-02-11T19:06:36.492Z,2.40
2023-02-11T19:09:09.891Z,2.42
2023-02-11T19:11:49.022Z,2.44
2023-02-11T19:14:23.882Z,2.45
2023-02-11T19:16:57.111Z,2.45
2023-02-11T19:19:30.223Z,2.44
2023-02-11T19:22:02.313Z,2.46
2023-02-11T19:24:34.168Z,2.47
2023-02-11T19:27:06.766Z,2.47
2023-02-11T19:29:37.805Z,2.48
2023-02-11T19:32:09.258Z,2.48
2023-02-11T19:34:42.189Z,2.48
2023-02-11T19:37:13.957Z,2.49
2023-02-11T19:39:46.073Z,2.50
2023-02-11T19:42:17.585Z,2.49
2023-02-11T19:44:49.299Z,2.48
2023-02-11T19:47:26.842Z,2.48
2023-02-11T19:49:57.912Z,2.48
2023-02-11T19:52:29.112Z,2.47
2023-02-11T19:55:00.455Z,2.46
2023-02-11T19:57:29.951Z,2.44
2023-02-11T20:00:01.475Z,2.41
2023-02-11T20:02:32.894Z,2.38
2023-02-11T20:05:04.087Z,2.36
2023-02-11T20:07:35.623Z,2.34
2023-02-11T20:10:09.514Z,2.33
2023-02-11T20:12:40.520Z,2.32
2023-02-11T20:15:12.866Z,2.31
2023-02-11T20:17:44.939Z,2.30
2023-02-11T20:20:16.403Z,2.27
2023-02-11T20:22:47.548Z,2.25
2023-02-11T20:25:19.016Z,2.23
2023-02-11T20:27:50.318Z,2.19
2023-02-11T20:30:22.720Z,2.16
2023-02-11T20:32:53.939Z,2.11
2023-02-11T20:35:25.131Z,2.07
2023-02-11T20:37:56.094Z,2.06
2023-02-11T20:40:27.193Z,2.06
2023-02-11T20:43:01.752Z,2.05
2023-02-11T20:45:33.739Z,2.01
2023-02-11T20:48:04.882Z,1.95
2023-02-11T20:50:37.883Z,1.91
2023-02-11T20:53:10.344Z,1.89
2023-02-11T20:55:42.408Z,1.87
2023-02-11T20:58:13.687Z,1.85
2023-02-11T21:00:44.896Z,1.83
2023-02-11T21:03:16.143Z,1.83
2023-02-11T21:05:47.468Z,1.85
2023-02-11T21:08:18.649Z,1.88
2023-02-11T21:10:50.839Z,1.89
2023-02-11T21:13:22.368Z,1.90
2023-02-11T21:15:57.254Z,1.91
2023-02-11T21:18:28.732Z,1.93
2023-02-11T21:21:00.435Z,1.95
2023-02-11T21:23:31.646Z,1.97
2023-02-11T21:26:01.678Z,2.01
2023-02-11T21:28:33.029Z,2.00
2023-02-11T21:31:05.229Z,1.98
2023-02-11T21:33:36.469Z,1.98
2023-02-11T21:36:08.806Z,1.96
2023-02-11T21:38:40.714Z,1.95
2023-02-11T21:41:10.434Z,1.93
2023-02-11T21:43:41.514Z,1.89
2023-02-11T21:46:13.923Z,1.85
2023-02-11T21:48:45.101Z,1.80
2023-02-11T21:51:17.687Z,1.77
2023-02-11T21:53:49.272Z,1.75
2023-02-11T21:56:20.848Z,1.75
2023-02-11T21:58:55.792Z,1.75
2023-02-11T22:01:29.655Z,1.76
2023-02-11T22:04:01.259Z,1.75
2023-02-11T22:06:35.378Z,1.75
2023-02-11T22:09:09.127Z,1.77
2023-02-11T22:11:40.367Z,1.79
2023-02-11T22:14:11.443Z,1.77
2023-02-11T22:16:42.401Z,1.75
2023-02-11T22:19:13.717Z,1.75
2023-02-11T22:21:44.988Z,1.74
2023-02-11T22:24:15.972Z,1.74
2023-02-11T22:26:47.202Z,1.75
2023-02-11T22:29:18.245Z,1.76
2023-02-11T22:31:49.495Z,1.76
2023-02-11T22:34:20.574Z,1.75
2023-02-11T22:36:51.584Z,1.73
2023-02-11T22:39:22.704Z,1.68
2023-02-11T22:41:54.606Z,1.63
2023-02-11T22:44:25.771Z,1.62
2023-02-11T22:46:57.516Z,1.62
2023-02-11T22:49:29.099Z,1.63
2023-02-11T22:52:00.731Z,1.65
2023-02-11T22:54:32.372Z,1.63
2023-02-11T22:57:03.410Z,1.61
2023-02-11T22:59:34.485Z,1.59
2023-02-11T23:02:05.856Z,1.60
2023-02-11T23:04:36.991Z,1.61
2023-02-11T23:07:08.023Z,1.63
2023-02-11T23:09:39.188Z,1.64
2023-02-11T23:12:10.434Z,1.65
2023-02-11T23:14:42.704Z,1.65
2023-02-11T23:17:14.018Z,1.63
2023-02-11T23:19:45.656Z,1.62
2023-02-11T23:22:16.732Z,1.62
2023-02-11T23:24:47.882Z,1.61
2023-02-11T23:27:18.780Z,1.62
2023-02-11T23:29:49.913Z,1.63
2023-02-11T23:32:21.023Z,1.62
2023-02-11T23:34:52.710Z,1.56
2023-02-11T23:37:23.751Z,1.48
2023-02-11T23:39:54.855Z,1.43
2023-02-11T23:42:26.118Z,1.40
2023-02-11T23:44:57.159Z,1.35
2023-02-11T23:47:26.923Z,1.32
2023-02-11T23:49:59.618Z,1.29
2023-02-11T23:52:30.782Z,1.26
2023-02-11T23:55:01.962Z,1.24
2023-02-11T23:57:34.645Z,1.20
